Curtis Field
KBBD : now visible

Airfield :











YOU CAN JOIN US ON...

 
LOGIN :

Register | Disclaimer

   EN    FR    IT 

 









Legend :    VFR   Marginal VFR   IFR   Intensive IFR   Very Intensive IFR
Visi :
Ceiling :
>= 8 km
>= 3000ft
5 to 8 km
1000 to 3000 ft
1500m to 5 km
500 to 1000 ft
800 to 1500m
200 to 500 ft
< 800m
< 200 ft
Symbols :   Thunderstorms  Fog  Heavy snow  Heavy precipitations  Wind > 20 kt







- Airport Elevation : 1827 ft


KBBD - Curtis Field

CURRENT METAR :
  • 181035Z AUTO 17011KT 10SM CLR 23/20 A3002 RMK AO2

EXPIRED METARs :
  • 181015Z AUTO 16009KT 10SM CLR 24/20 A3001 RMK AO2
  • 180955Z AUTO 16008KT 10SM CLR 24/20 A3001 RMK AO2
  • 180935Z AUTO 16009KT 10SM FEW034 FEW046 FEW055 24/20 A3001 RMK AO2
  • 180915Z AUTO 16009KT 10SM FEW048 FEW055 24/20 A3001 RMK AO2
  • 180855Z AUTO 16011KT 10SM FEW044 FEW050 25/20 A3001 RMK AO2
  • 180835Z AUTO 16010G16KT 10SM SCT045 SCT050 25/19 A3001 RMK AO2
  • 180815Z AUTO 16012KT 10SM FEW030 FEW038 BKN047 25/20 A3001 RMK AO2
  • 180755Z AUTO 16011G16KT 10SM FEW029 SCT043 SCT050 25/20 A3001 RMK AO2

TAF KBBD
Valid from the 18 at 06:00 until the 19 at 06:00 UTC


180538Z 1806/1906 15010KT P6SM SKC
FM181200 16010KT P6SM SCT025
TEMPO 1813/1814 BKN025
FM181500 17014G20KT P6SM FEW050
FM181900 15010KT P6SM SKC
KZHU FIR / North America



MET'MAP, your aeronautical weather chart ! - Copyright ORBIFLY December 2007 - Disclaimer

ORBIFLY MET'MAP TEAM :

Programming & Development : Alexandra Zaïnal
Concept & Development : Baudouin d'Aumeries
Co-Development & Prog : Marc-Olivier Méhu
Technical & hardware support : Manuel Goepfert

Contact : metmap@orbifly.com




SOURCES & CREDITS :

   NOAA       Earth
Advisory